sensor_id;sensor_type;location;lat;lon;timestamp;temperature;humidity
29255;DHT22;16277;48.890;2.306;2023-02-01T00:13:04;11.10;99.90
29255;DHT22;16277;48.890;2.306;2023-02-01T00:28:08;11.30;99.90
29255;DHT22;16277;48.890;2.306;2023-02-01T00:43:13;11.30;99.90
29255;DHT22;16277;48.890;2.306;2023-02-01T00:58:17;11.30;99.90
29255;DHT22;16277;48.890;2.306;2023-02-01T01:13:23;11.40;99.90
29255;DHT22;16277;48.890;2.306;2023-02-01T01:28:27;11.20;99.90
29255;DHT22;16277;48.890;2.306;2023-02-01T01:43:51;11.30;99.90
29255;DHT22;16277;48.890;2.306;2023-02-01T01:58:58;11.50;99.90
29255;DHT22;16277;48.890;2.306;2023-02-01T02:14:05;12.00;99.90
29255;DHT22;16277;48.890;2.306;2023-02-01T02:29:37;11.70;99.90
29255;DHT22;16277;48.890;2.306;2023-02-01T02:44:47;11.30;99.90
29255;DHT22;16277;48.890;2.306;2023-02-01T03:00:15;11.30;99.90
29255;DHT22;16277;48.890;2.306;2023-02-01T03:15:40;11.40;99.90
29255;DHT22;16277;48.890;2.306;2023-02-01T03:30:46;11.00;99.90
29255;DHT22;16277;48.890;2.306;2023-02-01T03:45:54;11.10;99.90
29255;DHT22;16277;48.890;2.306;2023-02-01T04:01:03;11.20;99.90
29255;DHT22;16277;48.890;2.306;2023-02-01T04:16:10;11.20;99.90
29255;DHT22;16277;48.890;2.306;2023-02-01T04:31:15;11.10;99.90
29255;DHT22;16277;48.890;2.306;2023-02-01T04:46:20;11.40;99.90
29255;DHT22;16277;48.890;2.306;2023-02-01T05:01:24;10.90;99.90
29255;DHT22;16277;48.890;2.306;2023-02-01T05:16:29;10.70;99.90
29255;DHT22;16277;48.890;2.306;2023-02-01T05:31:33;10.60;99.90
29255;DHT22;16277;48.890;2.306;2023-02-01T05:46:38;10.50;99.90
29255;DHT22;16277;48.890;2.306;2023-02-01T06:01:42;10.60;99.90
29255;DHT22;16277;48.890;2.306;2023-02-01T06:16:47;10.50;99.90
29255;DHT22;16277;48.890;2.306;2023-02-01T06:31:51;10.80;99.90
29255;DHT22;16277;48.890;2.306;2023-02-01T06:46:56;10.90;99.90
29255;DHT22;16277;48.890;2.306;2023-02-01T07:02:01;10.60;99.90
29255;DHT22;16277;48.890;2.306;2023-02-01T07:17:05;10.40;99.90
29255;DHT22;16277;48.890;2.306;2023-02-01T07:32:10;11.30;99.90
29255;DHT22;16277;48.890;2.306;2023-02-01T07:47:15;10.30;99.90
29255;DHT22;16277;48.890;2.306;2023-02-01T08:02:20;10.60;99.90
29255;DHT22;16277;48.890;2.306;2023-02-01T08:17:24;10.60;99.90
29255;DHT22;16277;48.890;2.306;2023-02-01T08:32:31;11.00;99.90
29255;DHT22;16277;48.890;2.306;2023-02-01T08:47:37;10.60;99.90
29255;DHT22;16277;48.890;2.306;2023-02-01T09:02:42;11.00;99.90
29255;DHT22;16277;48.890;2.306;2023-02-01T09:17:47;11.00;99.90
29255;DHT22;16277;48.890;2.306;2023-02-01T09:32:52;10.90;99.90
29255;DHT22;16277;48.890;2.306;2023-02-01T09:48:00;10.90;99.90
29255;DHT22;16277;48.890;2.306;2023-02-01T10:03:11;11.00;99.90
29255;DHT22;16277;48.890;2.306;2023-02-01T10:18:37;10.90;99.90
29255;DHT22;16277;48.890;2.306;2023-02-01T10:33:48;11.10;99.90
29255;DHT22;16277;48.890;2.306;2023-02-01T10:48:55;11.40;99.90
29255;DHT22;16277;48.890;2.306;2023-02-01T11:04:01;11.30;99.90
29255;DHT22;16277;48.890;2.306;2023-02-01T11:19:07;11.40;99.90
29255;DHT22;16277;48.890;2.306;2023-02-01T11:34:15;11.90;99.90
29255;DHT22;16277;48.890;2.306;2023-02-01T11:49:22;11.50;99.90
29255;DHT22;16277;48.890;2.306;2023-02-01T12:20:21;11.70;99.90
29255;DHT22;16277;48.890;2.306;2023-02-01T12:35:42;12.10;99.90
29255;DHT22;16277;48.890;2.306;2023-02-01T12:50:50;13.10;99.90
29255;DHT22;16277;48.890;2.306;2023-02-01T13:06:00;12.20;99.90
29255;DHT22;16277;48.890;2.306;2023-02-01T13:21:12;12.20;99.90
29255;DHT22;16277;48.890;2.306;2023-02-01T13:36:39;12.40;99.90
29255;DHT22;16277;48.890;2.306;2023-02-01T13:51:49;12.20;99.90
29255;DHT22;16277;48.890;2.306;2023-02-01T14:06:55;12.50;99.90
29255;DHT22;16277;48.890;2.306;2023-02-01T14:22:33;12.40;99.90
29255;DHT22;16277;48.890;2.306;2023-02-01T14:37:39;12.30;99.90
29255;DHT22;16277;48.890;2.306;2023-02-01T14:52:45;12.60;99.90
29255;DHT22;16277;48.890;2.306;2023-02-01T15:07:51;12.20;99.90
29255;DHT22;16277;48.890;2.306;2023-02-01T15:22:59;12.90;99.90
29255;DHT22;16277;48.890;2.306;2023-02-01T15:38:34;13.00;99.90
29255;DHT22;16277;48.890;2.306;2023-02-01T15:53:44;12.70;99.90
29255;DHT22;16277;48.890;2.306;2023-02-01T16:08:53;12.60;99.90
29255;DHT22;16277;48.890;2.306;2023-02-01T16:23:58;12.40;99.90
29255;DHT22;16277;48.890;2.306;2023-02-01T16:39:08;12.20;99.90
29255;DHT22;16277;48.890;2.306;2023-02-01T16:54:13;12.50;99.90
29255;DHT22;16277;48.890;2.306;2023-02-01T17:09:17;12.20;99.90
29255;DHT22;16277;48.890;2.306;2023-02-01T17:24:25;12.10;99.90
29255;DHT22;16277;48.890;2.306;2023-02-01T17:39:41;12.00;99.90
29255;DHT22;16277;48.890;2.306;2023-02-01T17:55:00;12.10;99.90
29255;DHT22;16277;48.890;2.306;2023-02-01T18:10:08;11.90;99.90
29255;DHT22;16277;48.890;2.306;2023-02-01T18:25:17;11.70;99.90
29255;DHT22;16277;48.890;2.306;2023-02-01T18:40:25;12.00;99.90
29255;DHT22;16277;48.890;2.306;2023-02-01T18:55:31;11.90;99.90
29255;DHT22;16277;48.890;2.306;2023-02-01T19:10:36;11.80;99.90
29255;DHT22;16277;48.890;2.306;2023-02-01T19:25:44;11.60;99.90
29255;DHT22;16277;48.890;2.306;2023-02-01T19:40:49;11.60;99.90
29255;DHT22;16277;48.890;2.306;2023-02-01T19:55:55;11.50;99.90
29255;DHT22;16277;48.890;2.306;2023-02-01T20:11:00;11.90;99.90
29255;DHT22;16277;48.890;2.306;2023-02-01T20:26:06;11.70;99.90
29255;DHT22;16277;48.890;2.306;2023-02-01T20:41:11;11.70;99.90
29255;DHT22;16277;48.890;2.306;2023-02-01T20:56:16;11.70;99.90
29255;DHT22;16277;48.890;2.306;2023-02-01T21:11:20;11.60;99.90
